Time;durP1;ratioP1;P1;durP2;ratioP2;P2;SDS_P1;SDS_P2;PMS_P1;PMS_P2;Temp;Humidity;BMP_temperature;BMP_pressure;BME280_temperature;BME280_humidity;BME280_pressure;Samples;Min_cycle;Max_cycle;Signal;HPM_P1;HPM_P2
2021/07/15 00:00:35;;;;;;;;;;;18.40;99.90;;;;;;5072314;28;20022;-72
2021/07/15 00:03:03;;;;;;;;;;;18.50;99.90;;;;;;5071979;28;19932;-71
2021/07/15 00:05:31;;;;;;;;;;;18.20;99.90;;;;;;5071407;28;19929;-72
2021/07/15 00:07:57;;;;;;;;;;;18.20;99.90;;;;;;5068280;28;20019;-71
2021/07/15 00:10:28;;;;;;;;;;;18.30;99.90;;;;;;5078364;28;19932;-71
2021/07/15 00:12:54;;;;;;;;;;;18.40;99.90;;;;;;5078683;28;20446;-71
2021/07/15 00:15:23;;;;;;;;;;;18.30;99.90;;;;;;5081642;28;19958;-71
2021/07/15 00:17:50;;;;;;;;;;;18.40;99.90;;;;;;5078442;28;19932;-72
2021/07/15 00:20:18;;;;;;;;;;;18.30;99.90;;;;;;5079230;28;20434;-72
2021/07/15 00:22:44;;;;;;;;;;;18.30;99.90;;;;;;5078934;28;19980;-72
2021/07/15 00:25:13;;;;;;;;;;;18.20;99.90;;;;;;5086554;28;19977;-72
2021/07/15 00:27:40;;;;;;;;;;;18.00;99.90;;;;;;5084236;28;20015;-73
2021/07/15 00:30:07;;;;;;;;;;;18.10;99.90;;;;;;5079527;28;19955;-73
2021/07/15 00:32:34;;;;;;;;;;;18.10;99.90;;;;;;5078943;28;20077;-72
2021/07/15 00:35:01;;;;;;;;;;;18.20;99.90;;;;;;5073322;28;19939;-73
2021/07/15 00:37:29;;;;;;;;;;;18.20;99.90;;;;;;5081821;28;20434;-71
2021/07/15 00:39:56;;;;;;;;;;;18.10;99.90;;;;;;5077335;28;20803;-71
2021/07/15 00:42:22;;;;;;;;;;;18.10;99.90;;;;;;5077811;28;19968;-71
2021/07/15 00:44:49;;;;;;;;;;;18.10;99.90;;;;;;5081552;28;20015;-72
2021/07/15 00:47:16;;;;;;;;;;;18.20;99.90;;;;;;5076840;28;20360;-72
2021/07/15 00:49:42;;;;;;;;;;;18.30;99.90;;;;;;5078961;28;20331;-71
2021/07/15 00:52:12;;;;;;;;;;;18.20;99.90;;;;;;5077201;28;19971;-71
2021/07/15 00:54:40;;;;;;;;;;;18.30;99.90;;;;;;5077406;28;20394;-71
2021/07/15 00:57:07;;;;;;;;;;;18.20;99.90;;;;;;5074373;28;20034;-74
2021/07/15 00:59:34;;;;;;;;;;;18.10;99.90;;;;;;5083205;28;20184;-68
2021/07/15 01:02:01;;;;;;;;;;;18.80;99.90;;;;;;5079871;28;19967;-70
2021/07/15 01:04:28;;;;;;;;;;;19.10;99.90;;;;;;5084122;28;20341;-71
2021/07/15 01:06:55;;;;;;;;;;;19.30;99.90;;;;;;5076309;28;20411;-70
2021/07/15 01:09:22;;;;;;;;;;;19.30;99.90;;;;;;5085451;28;19942;-70
2021/07/15 01:12:01;;;;;;;;;;;19.30;99.90;;;;;;5074388;28;20023;-70
2021/07/15 01:14:29;;;;;;;;;;;19.40;99.90;;;;;;5082959;28;20010;-70
2021/07/15 01:17:08;;;;;;;;;;;19.50;99.90;;;;;;5080671;28;20413;-69
2021/07/15 01:19:37;;;;;;;;;;;19.60;99.90;;;;;;5077490;28;19931;-69
2021/07/15 01:22:23;;;;;;;;;;;19.40;99.90;;;;;;5082629;28;19978;-69
2021/07/15 01:25:09;;;;;;;;;;;19.40;99.90;;;;;;5083139;28;19960;-69
2021/07/15 01:27:51;;;;;;;;;;;19.40;99.90;;;;;;5079388;28;20027;-69
2021/07/15 01:30:21;;;;;;;;;;;19.50;99.90;;;;;;5085485;28;20023;-69
2021/07/15 01:32:48;;;;;;;;;;;19.40;99.90;;;;;;5077189;28;19951;-70
2021/07/15 01:35:16;;;;;;;;;;;19.40;99.90;;;;;;5088015;28;19934;-71
2021/07/15 01:37:47;;;;;;;;;;;19.40;99.90;;;;;;5082195;28;20011;-70
2021/07/15 01:40:14;;;;;;;;;;;19.30;99.90;;;;;;5081449;28;20375;-69
2021/07/15 01:42:42;;;;;;;;;;;19.30;99.90;;;;;;5077729;28;20347;-69
2021/07/15 01:45:09;;;;;;;;;;;19.40;99.90;;;;;;5075528;28;19955;-69
2021/07/15 01:47:36;;;;;;;;;;;19.40;99.90;;;;;;5074587;28;20046;-69
2021/07/15 01:50:03;;;;;;;;;;;19.40;99.90;;;;;;5073904;28;19955;-68
2021/07/15 01:52:30;;;;;;;;;;;19.30;99.90;;;;;;5078351;28;19967;-71
2021/07/15 01:54:56;;;;;;;;;;;19.40;99.90;;;;;;5079812;28;20384;-71
2021/07/15 01:57:24;;;;;;;;;;;19.40;99.90;;;;;;5086645;28;19979;-69
2021/07/15 01:59:52;;;;;;;;;;;19.30;99.90;;;;;;5076988;28;20012;-69
2021/07/15 02:02:20;;;;;;;;;;;19.40;99.90;;;;;;5082712;28;20332;-69
2021/07/15 02:04:51;;;;;;;;;;;19.40;99.90;;;;;;5075359;28;19924;-68
2021/07/15 02:07:18;;;;;;;;;;;19.30;99.90;;;;;;5077479;28;19982;-69
2021/07/15 02:09:45;;;;;;;;;;;19.30;99.90;;;;;;5077166;28;19928;-69
2021/07/15 02:12:11;;;;;;;;;;;19.30;99.90;;;;;;5083974;28;20345;-69
2021/07/15 02:14:38;;;;;;;;;;;19.40;99.90;;;;;;5072693;27;20357;-68
2021/07/15 02:17:06;;;;;;;;;;;19.50;99.90;;;;;;5084715;28;19928;-69
2021/07/15 02:19:34;;;;;;;;;;;19.50;99.90;;;;;;5073224;28;19924;-69
2021/07/15 02:22:02;;;;;;;;;;;19.50;99.90;;;;;;5079146;28;19928;-69
2021/07/15 02:24:30;;;;;;;;;;;19.40;99.90;;;;;;5074677;28;19969;-68
2021/07/15 02:26:57;;;;;;;;;;;19.50;99.90;;;;;;5085665;28;20014;-68
2021/07/15 02:29:24;;;;;;;;;;;19.60;99.90;;;;;;5078552;28;19978;-68
2021/07/15 02:31:56;;;;;;;;;;;19.40;99.90;;;;;;5080725;28;19967;-68
2021/07/15 02:34:26;;;;;;;;;;;19.40;99.90;;;;;;5076537;28;19932;-69
2021/07/15 02:36:53;;;;;;;;;;;19.40;99.90;;;;;;5079379;28;20439;-68
2021/07/15 02:39:20;;;;;;;;;;;19.40;99.90;;;;;;5072251;28;20326;-68
2021/07/15 02:41:47;;;;;;;;;;;19.40;99.90;;;;;;5079064;28;19924;-69
2021/07/15 02:44:13;;;;;;;;;;;19.30;99.90;;;;;;5074126;28;19955;-69
2021/07/15 02:46:40;;;;;;;;;;;19.30;99.90;;;;;;5109889;27;19987;-69
2021/07/15 02:49:07;;;;;;;;;;;19.30;99.90;;;;;;5074099;28;19971;-69
2021/07/15 02:51:34;;;;;;;;;;;19.30;99.90;;;;;;5084490;28;20027;-69
2021/07/15 02:54:01;;;;;;;;;;;19.30;99.90;;;;;;5114494;27;20506;-69
2021/07/15 02:56:32;;;;;;;;;;;19.30;99.90;;;;;;5086548;28;19971;-68
2021/07/15 02:59:05;;;;;;;;;;;19.30;99.90;;;;;;5073311;28;19955;-69
2021/07/15 03:01:41;;;;;;;;;;;19.30;99.90;;;;;;5080191;28;19964;-69
2021/07/15 03:04:29;;;;;;;;;;;19.30;99.90;;;;;;5081493;28;20300;-69
2021/07/15 03:06:57;;;;;;;;;;;19.30;99.90;;;;;;5083984;28;20390;-69
2021/07/15 03:09:29;;;;;;;;;;;19.30;99.90;;;;;;5082544;28;19931;-69
2021/07/15 03:12:12;;;;;;;;;;;19.40;99.90;;;;;;5095048;28;19971;-68
2021/07/15 03:14:42;;;;;;;;;;;19.40;99.90;;;;;;5088625;28;20009;-69
2021/07/15 03:17:10;;;;;;;;;;;19.40;99.90;;;;;;5077400;28;20011;-70
2021/07/15 03:19:40;;;;;;;;;;;19.30;99.90;;;;;;5081175;28;19970;-70
2021/07/15 03:22:07;;;;;;;;;;;19.40;99.90;;;;;;5081968;28;20018;-70
2021/07/15 03:24:36;;;;;;;;;;;19.40;99.90;;;;;;5083819;28;20003;-70
2021/07/15 03:27:04;;;;;;;;;;;19.30;99.90;;;;;;5080248;28;20699;-69
2021/07/15 03:29:35;;;;;;;;;;;19.30;99.90;;;;;;5077377;28;19932;-70
2021/07/15 03:32:02;;;;;;;;;;;19.30;99.90;;;;;;5080693;28;20031;-69
2021/07/15 03:34:30;;;;;;;;;;;19.30;99.90;;;;;;5085043;28;19924;-70
2021/07/15 03:36:57;;;;;;;;;;;19.30;99.90;;;;;;5086319;28;19925;-70
2021/07/15 03:39:23;;;;;;;;;;;19.30;99.90;;;;;;5076940;28;19970;-70
2021/07/15 03:41:51;;;;;;;;;;;19.40;99.90;;;;;;5081785;28;20414;-69
2021/07/15 03:44:18;;;;;;;;;;;19.30;99.90;;;;;;5076882;28;20015;-70
2021/07/15 03:46:45;;;;;;;;;;;19.30;99.90;;;;;;5080343;28;19946;-69
2021/07/15 03:49:16;;;;;;;;;;;19.20;99.90;;;;;;5075810;28;19934;-69
2021/07/15 03:51:43;;;;;;;;;;;19.20;99.90;;;;;;5079290;28;19924;-68
2021/07/15 03:54:11;;;;;;;;;;;19.30;99.90;;;;;;5078458;28;20329;-68
2021/07/15 03:56:38;;;;;;;;;;;19.20;99.90;;;;;;5088534;28;19979;-69
2021/07/15 03:59:05;;;;;;;;;;;19.30;99.90;;;;;;5079667;28;20016;-69
2021/07/15 04:01:32;;;;;;;;;;;19.40;99.90;;;;;;5078406;28;20054;-69
2021/07/15 04:04:03;;;;;;;;;;;19.50;99.90;;;;;;5076321;28;19928;-70
2021/07/15 04:06:29;;;;;;;;;;;19.50;99.90;;;;;;5080378;28;20055;-69
2021/07/15 04:08:58;;;;;;;;;;;19.60;99.90;;;;;;5076441;28;19960;-70
2021/07/15 04:11:27;;;;;;;;;;;19.40;99.90;;;;;;5086677;28;19946;-67
2021/07/15 04:13:54;;;;;;;;;;;19.40;99.90;;;;;;5092998;28;19950;-69
2021/07/15 04:16:29;;;;;;;;;;;19.40;99.90;;;;;;5082586;28;19967;-69
2021/07/15 04:18:57;;;;;;;;;;;19.40;99.90;;;;;;5076629;28;20078;-69
2021/07/15 04:21:24;;;;;;;;;;;19.50;99.90;;;;;;5077164;28;20022;-69
2021/07/15 04:23:54;;;;;;;;;;;19.50;99.90;;;;;;5078105;28;20065;-69
2021/07/15 04:26:21;;;;;;;;;;;19.50;99.90;;;;;;5086063;28;20364;-69
2021/07/15 04:28:49;;;;;;;;;;;19.60;99.90;;;;;;5086099;28;19975;-69
2021/07/15 04:31:15;;;;;;;;;;;19.60;99.90;;;;;;5083726;28;20043;-69
2021/07/15 04:33:43;;;;;;;;;;;19.60;99.90;;;;;;5081423;28;20371;-70
2021/07/15 04:36:11;;;;;;;;;;;19.50;99.90;;;;;;5084244;28;20414;-68
2021/07/15 04:38:38;;;;;;;;;;;19.40;99.90;;;;;;5081323;28;20023;-67
2021/07/15 04:41:05;;;;;;;;;;;19.40;99.90;;;;;;5079282;28;20280;-68
2021/07/15 04:43:32;;;;;;;;;;;19.40;99.90;;;;;;5077120;28;19971;-68
2021/07/15 04:46:00;;;;;;;;;;;19.40;99.90;;;;;;5080019;28;20005;-69
2021/07/15 04:48:26;;;;;;;;;;;19.40;99.90;;;;;;5074317;28;19959;-68
2021/07/15 04:50:55;;;;;;;;;;;19.40;99.90;;;;;;5080167;28;21837;-68
2021/07/15 04:53:23;;;;;;;;;;;19.30;99.90;;;;;;5078904;28;20043;-70
2021/07/15 04:55:54;;;;;;;;;;;19.30;99.90;;;;;;5077378;28;20020;-70
2021/07/15 04:58:21;;;;;;;;;;;19.30;99.90;;;;;;5080019;28;20031;-69
2021/07/15 05:00:49;;;;;;;;;;;19.30;99.90;;;;;;5081442;28;20412;-70
2021/07/15 05:03:25;;;;;;;;;;;19.30;99.90;;;;;;5076064;28;19936;-70
2021/07/15 05:05:52;;;;;;;;;;;19.40;99.90;;;;;;5077927;28;20344;-70
2021/07/15 05:08:18;;;;;;;;;;;19.30;99.90;;;;;;5072332;28;19928;-70
2021/07/15 05:10:45;;;;;;;;;;;19.30;99.90;;;;;;5088776;28;20432;-70
2021/07/15 05:13:12;;;;;;;;;;;19.40;99.90;;;;;;5083042;28;20019;-69
2021/07/15 05:15:39;;;;;;;;;;;19.50;99.90;;;;;;5078349;28;19970;-70
2021/07/15 05:18:06;;;;;;;;;;;19.50;99.90;;;;;;5075881;28;20398;-69
2021/07/15 05:20:32;;;;;;;;;;;19.50;99.90;;;;;;5079759;28;19967;-70
2021/07/15 05:22:59;;;;;;;;;;;19.40;99.90;;;;;;5079136;28;20019;-69
2021/07/15 05:25:26;;;;;;;;;;;19.40;99.90;;;;;;5083512;28;19975;-69
2021/07/15 05:27:52;;;;;;;;;;;19.40;99.90;;;;;;5085242;28;20021;-69
2021/07/15 05:30:19;;;;;;;;;;;19.30;99.90;;;;;;5078343;28;20339;-70
2021/07/15 05:32:46;;;;;;;;;;;19.40;99.90;;;;;;5075288;28;20299;-69
2021/07/15 05:35:12;;;;;;;;;;;19.50;99.90;;;;;;5078046;28;19967;-69
2021/07/15 05:37:40;;;;;;;;;;;19.50;99.90;;;;;;5073798;28;20020;-70
2021/07/15 05:40:08;;;;;;;;;;;19.50;99.90;;;;;;5080945;28;19977;-70
2021/07/15 05:42:34;;;;;;;;;;;19.40;99.90;;;;;;5074921;28;20453;-70
2021/07/15 05:45:01;;;;;;;;;;;19.40;99.90;;;;;;5086102;28;19924;-70
2021/07/15 05:47:28;;;;;;;;;;;19.60;99.90;;;;;;5075536;28;20411;-71
2021/07/15 05:49:54;;;;;;;;;;;19.60;99.90;;;;;;5077186;28;19968;-70
2021/07/15 05:52:21;;;;;;;;;;;19.60;99.90;;;;;;5077949;28;19956;-71
2021/07/15 05:54:50;;;;;;;;;;;19.50;99.90;;;;;;5083845;28;19959;-71
2021/07/15 05:57:17;;;;;;;;;;;19.60;99.90;;;;;;5079065;28;20327;-70
2021/07/15 05:59:43;;;;;;;;;;;19.60;99.90;;;;;;5073559;28;19955;-71
2021/07/15 06:02:12;;;;;;;;;;;19.50;99.90;;;;;;5085562;28;20014;-70
2021/07/15 06:04:39;;;;;;;;;;;19.60;99.90;;;;;;5074757;28;20286;-70
2021/07/15 06:07:05;;;;;;;;;;;19.60;99.90;;;;;;5077514;28;20019;-69
2021/07/15 06:09:32;;;;;;;;;;;19.60;99.90;;;;;;5076265;28;19935;-69
2021/07/15 06:11:59;;;;;;;;;;;19.70;99.90;;;;;;5076697;28;20035;-69
2021/07/15 06:14:26;;;;;;;;;;;19.60;99.90;;;;;;5107626;27;20015;-71
2021/07/15 06:16:53;;;;;;;;;;;19.60;99.90;;;;;;5075793;28;19924;-70
2021/07/15 06:19:19;;;;;;;;;;;19.60;99.90;;;;;;5075334;28;19990;-70
2021/07/15 06:21:46;;;;;;;;;;;19.50;99.90;;;;;;5086225;28;20331;-70
2021/07/15 06:24:13;;;;;;;;;;;19.60;99.90;;;;;;5077577;28;20331;-70
2021/07/15 06:26:39;;;;;;;;;;;19.60;99.90;;;;;;5077355;28;20014;-70
2021/07/15 06:29:06;;;;;;;;;;;19.50;99.90;;;;;;5070876;28;20307;-69
2021/07/15 06:31:33;;;;;;;;;;;19.40;99.90;;;;;;5077660;28;20347;-69
2021/07/15 06:34:00;;;;;;;;;;;19.50;99.90;;;;;;5073065;28;20322;-70
2021/07/15 06:36:30;;;;;;;;;;;19.50;99.90;;;;;;5079148;28;20425;-69
2021/07/15 06:38:57;;;;;;;;;;;19.50;99.90;;;;;;5073809;28;19928;-69
2021/07/15 06:41:23;;;;;;;;;;;19.50;99.90;;;;;;5077599;28;19959;-70
2021/07/15 06:43:50;;;;;;;;;;;19.50;99.90;;;;;;5075977;28;19931;-69
2021/07/15 06:46:17;;;;;;;;;;;19.60;99.90;;;;;;5084403;28;19968;-66
2021/07/15 06:48:44;;;;;;;;;;;19.60;99.90;;;;;;5085706;28;19956;-70
2021/07/15 06:51:11;;;;;;;;;;;19.60;99.90;;;;;;5075259;28;20379;-69
2021/07/15 06:53:38;;;;;;;;;;;19.60;99.90;;;;;;5080143;28;20009;-69
2021/07/15 06:56:05;;;;;;;;;;;19.60;99.90;;;;;;5080870;28;20022;-69
2021/07/15 06:58:31;;;;;;;;;;;19.50;99.90;;;;;;5074079;28;19979;-70
2021/07/15 07:00:58;;;;;;;;;;;19.60;99.90;;;;;;5077708;28;20015;-70
2021/07/15 07:03:25;;;;;;;;;;;19.60;99.90;;;;;;5078079;28;19999;-69
2021/07/15 07:05:52;;;;;;;;;;;19.70;99.90;;;;;;5076338;28;19924;-69
2021/07/15 07:08:19;;;;;;;;;;;19.70;99.90;;;;;;5074400;28;19967;-70
2021/07/15 07:10:46;;;;;;;;;;;19.80;99.90;;;;;;5080051;28;19952;-70
2021/07/15 07:13:12;;;;;;;;;;;19.80;99.90;;;;;;5075286;28;20399;-67
2021/07/15 07:15:39;;;;;;;;;;;19.90;99.90;;;;;;5077969;28;19924;-68
2021/07/15 07:18:06;;;;;;;;;;;19.90;99.90;;;;;;5087755;28;19977;-67
2021/07/15 07:20:32;;;;;;;;;;;19.80;99.90;;;;;;5079437;28;19958;-69
2021/07/15 07:22:59;;;;;;;;;;;19.70;99.90;;;;;;5075566;28;19964;-69
2021/07/15 07:25:26;;;;;;;;;;;19.80;99.90;;;;;;5075558;28;19939;-69
2021/07/15 07:27:53;;;;;;;;;;;19.70;99.90;;;;;;5076244;28;19932;-70
2021/07/15 07:30:19;;;;;;;;;;;19.70;99.90;;;;;;5076987;28;20011;-70
2021/07/15 07:32:46;;;;;;;;;;;19.80;99.90;;;;;;5082145;28;20019;-70
2021/07/15 07:35:15;;;;;;;;;;;19.70;99.90;;;;;;5072680;28;20014;-69
2021/07/15 07:37:42;;;;;;;;;;;19.60;99.90;;;;;;5076489;28;19970;-70
2021/07/15 07:40:10;;;;;;;;;;;19.60;99.90;;;;;;5074640;28;19963;-70
2021/07/15 07:42:39;;;;;;;;;;;19.70;99.90;;;;;;5072726;28;19924;-70
2021/07/15 07:45:07;;;;;;;;;;;19.80;99.90;;;;;;5076893;28;20356;-70
2021/07/15 07:47:34;;;;;;;;;;;19.70;99.90;;;;;;5082857;28;19925;-70
2021/07/15 07:50:00;;;;;;;;;;;19.70;99.90;;;;;;5077867;28;19976;-70
2021/07/15 07:52:30;;;;;;;;;;;19.90;99.90;;;;;;5087655;28;19931;-70
2021/07/15 07:54:57;;;;;;;;;;;20.00;99.90;;;;;;5081541;28;19928;-69
2021/07/15 07:57:23;;;;;;;;;;;19.90;99.90;;;;;;5080884;28;20439;-69
2021/07/15 07:59:50;;;;;;;;;;;19.80;99.90;;;;;;5077036;28;19978;-70
2021/07/15 08:02:18;;;;;;;;;;;20.00;99.90;;;;;;5080730;28;19959;-69
2021/07/15 08:04:45;;;;;;;;;;;20.10;99.90;;;;;;5076027;28;19931;-70
2021/07/15 08:07:15;;;;;;;;;;;20.20;99.90;;;;;;5079190;28;19928;-69
2021/07/15 08:09:44;;;;;;;;;;;20.20;99.80;;;;;;5083179;28;19990;-70
2021/07/15 08:12:15;;;;;;;;;;;20.20;99.80;;;;;;5080281;28;19977;-72
2021/07/15 08:14:43;;;;;;;;;;;20.20;99.40;;;;;;5076955;28;19924;-70
2021/07/15 08:17:10;;;;;;;;;;;20.10;99.50;;;;;;5079044;28;19975;-71
2021/07/15 08:19:37;;;;;;;;;;;20.10;99.30;;;;;;5084146;28;20420;-70
2021/07/15 08:22:04;;;;;;;;;;;20.00;99.60;;;;;;5087350;28;19932;-70
2021/07/15 08:24:31;;;;;;;;;;;20.10;99.20;;;;;;5082592;28;19931;-70
2021/07/15 08:26:58;;;;;;;;;;;20.10;99.60;;;;;;5075323;28;20066;-70
2021/07/15 08:29:25;;;;;;;;;;;20.10;99.00;;;;;;5079643;28;19978;-70
2021/07/15 08:31:51;;;;;;;;;;;20.10;98.90;;;;;;5079049;28;19959;-70
2021/07/15 08:34:19;;;;;;;;;;;20.20;98.70;;;;;;5075882;28;20036;-70
2021/07/15 08:36:46;;;;;;;;;;;20.20;98.80;;;;;;5075788;28;19928;-70
2021/07/15 08:39:12;;;;;;;;;;;20.20;98.70;;;;;;5076553;28;20363;-70
2021/07/15 08:41:39;;;;;;;;;;;20.40;98.60;;;;;;5075743;28;19924;-70
2021/07/15 08:44:06;;;;;;;;;;;20.50;98.80;;;;;;5074268;28;20032;-70
2021/07/15 08:46:34;;;;;;;;;;;20.50;98.40;;;;;;5077168;28;20014;-70
2021/07/15 08:49:01;;;;;;;;;;;20.50;98.60;;;;;;5082101;28;20327;-69
2021/07/15 08:51:28;;;;;;;;;;;20.50;98.20;;;;;;5091367;28;20011;-70
2021/07/15 08:53:55;;;;;;;;;;;20.60;98.20;;;;;;5078415;28;19975;-71
2021/07/15 08:56:37;;;;;;;;;;;20.60;98.30;;;;;;5085112;28;20023;-70
2021/07/15 08:59:05;;;;;;;;;;;20.60;97.90;;;;;;5073072;28;20367;-71
2021/07/15 09:01:33;;;;;;;;;;;20.60;98.20;;;;;;5081605;28;19973;-69
2021/07/15 09:04:01;;;;;;;;;;;20.60;98.00;;;;;;5079638;28;19925;-71
2021/07/15 09:06:27;;;;;;;;;;;20.50;97.70;;;;;;5087259;28;20050;-71
2021/07/15 09:08:55;;;;;;;;;;;20.50;98.10;;;;;;5078122;28;20404;-71
2021/07/15 09:11:22;;;;;;;;;;;20.40;97.90;;;;;;5082260;28;19975;-75
2021/07/15 09:13:49;;;;;;;;;;;20.30;99.00;;;;;;5088434;28;20027;-75
2021/07/15 09:16:17;;;;;;;;;;;20.30;99.40;;;;;;5084604;28;20960;-75
2021/07/15 09:18:53;;;;;;;;;;;20.30;98.50;;;;;;5085494;28;19924;-76
2021/07/15 09:21:20;;;;;;;;;;;20.30;99.80;;;;;;5083651;28;19928;-76
2021/07/15 09:23:47;;;;;;;;;;;20.40;98.80;;;;;;5079249;28;19950;-75
2021/07/15 09:26:14;;;;;;;;;;;20.50;99.40;;;;;;5082776;28;19925;-77
2021/07/15 09:28:41;;;;;;;;;;;20.60;98.80;;;;;;5079057;28;20015;-77
2021/07/15 09:31:14;;;;;;;;;;;20.50;98.40;;;;;;5087101;28;19924;-77
2021/07/15 09:33:43;;;;;;;;;;;20.60;98.40;;;;;;5086603;28;19924;-77
2021/07/15 09:36:16;;;;;;;;;;;20.50;98.60;;;;;;5078428;28;19924;-76
2021/07/15 09:38:44;;;;;;;;;;;20.60;98.40;;;;;;5076561;28;20697;-77
2021/07/15 09:41:13;;;;;;;;;;;20.60;97.80;;;;;;5082591;28;20362;-76
2021/07/15 09:43:41;;;;;;;;;;;20.60;98.90;;;;;;5085744;28;20551;-76
2021/07/15 09:46:11;;;;;;;;;;;20.60;96.90;;;;;;5075624;28;19971;-76
2021/07/15 09:48:39;;;;;;;;;;;20.60;96.60;;;;;;5086061;28;19932;-74
2021/07/15 09:51:09;;;;;;;;;;;20.60;96.40;;;;;;5080234;28;19959;-78
2021/07/15 09:53:36;;;;;;;;;;;20.70;96.80;;;;;;5080563;28;20391;-75
2021/07/15 09:56:08;;;;;;;;;;;20.70;98.20;;;;;;5074638;28;19931;-76
2021/07/15 09:58:38;;;;;;;;;;;20.80;96.90;;;;;;5083670;28;19924;-77
2021/07/15 10:01:10;;;;;;;;;;;20.70;97.50;;;;;;5074050;28;20371;-78
2021/07/15 10:03:38;;;;;;;;;;;20.80;97.10;;;;;;5112565;27;20007;-71
2021/07/15 10:06:06;;;;;;;;;;;20.80;96.70;;;;;;5076661;28;19954;-74
2021/07/15 10:08:34;;;;;;;;;;;20.80;96.40;;;;;;5078999;28;20015;-77
2021/07/15 10:11:13;;;;;;;;;;;20.80;96.70;;;;;;5087254;28;20004;-77
2021/07/15 10:13:40;;;;;;;;;;;20.80;97.60;;;;;;5083216;28;19935;-77
2021/07/15 10:16:08;;;;;;;;;;;20.80;97.50;;;;;;5087534;28;20479;-74
2021/07/15 10:18:35;;;;;;;;;;;20.80;98.00;;;;;;5072607;28;19979;-77
2021/07/15 10:21:02;;;;;;;;;;;20.90;98.30;;;;;;5077539;28;19932;-77
2021/07/15 10:23:30;;;;;;;;;;;20.90;97.50;;;;;;5078191;28;19943;-77
2021/07/15 10:25:58;;;;;;;;;;;20.90;97.10;;;;;;5082145;28;19994;-73
2021/07/15 10:28:26;;;;;;;;;;;20.90;97.00;;;;;;5077195;28;20019;-73
2021/07/15 10:30:53;;;;;;;;;;;21.00;97.50;;;;;;5079841;28;20011;-74
2021/07/15 10:33:20;;;;;;;;;;;21.00;97.20;;;;;;5076072;28;19935;-74
2021/07/15 10:35:47;;;;;;;;;;;21.00;97.30;;;;;;5077976;28;20018;-74
2021/07/15 10:38:14;;;;;;;;;;;21.00;97.50;;;;;;5075738;28;20026;-73
2021/07/15 10:40:41;;;;;;;;;;;20.90;96.90;;;;;;5078688;28;19964;-73
2021/07/15 10:43:07;;;;;;;;;;;20.90;97.60;;;;;;5080746;28;19932;-73
2021/07/15 10:45:34;;;;;;;;;;;20.90;96.40;;;;;;5076687;28;19932;-74
2021/07/15 10:48:01;;;;;;;;;;;20.90;96.40;;;;;;5080709;28;20010;-72
2021/07/15 10:50:28;;;;;;;;;;;20.90;96.50;;;;;;5074037;28;20043;-73
2021/07/15 10:52:55;;;;;;;;;;;20.90;96.80;;;;;;5075831;28;20996;-73
2021/07/15 10:55:24;;;;;;;;;;;20.90;96.70;;;;;;5078541;28;19962;-73
2021/07/15 10:57:51;;;;;;;;;;;20.90;97.50;;;;;;5075474;28;20435;-73
2021/07/15 11:00:25;;;;;;;;;;;20.90;96.80;;;;;;5078867;28;19932;-72
2021/07/15 11:03:07;;;;;;;;;;;20.90;96.70;;;;;;5077302;28;19933;-73
2021/07/15 11:05:44;;;;;;;;;;;21.00;97.00;;;;;;5078168;28;20005;-72
2021/07/15 11:08:10;;;;;;;;;;;21.00;96.50;;;;;;5079771;28;20607;-73
2021/07/15 11:10:37;;;;;;;;;;;21.00;96.60;;;;;;5079597;28;21405;-73
2021/07/15 11:13:05;;;;;;;;;;;21.00;96.40;;;;;;5081941;28;19928;-73
2021/07/15 11:15:49;;;;;;;;;;;21.00;96.40;;;;;;5073905;28;20031;-71
2021/07/15 11:18:34;;;;;;;;;;;21.00;96.30;;;;;;5074577;28;19932;-72
2021/07/15 11:21:25;;;;;;;;;;;21.00;96.50;;;;;;5071397;28;20298;-75
2021/07/15 11:24:12;;;;;;;;;;;21.10;96.70;;;;;;5069006;28;19993;-70
2021/07/15 11:26:42;;;;;;;;;;;21.20;97.40;;;;;;5066326;28;19971;-70
2021/07/15 11:29:10;;;;;;;;;;;21.30;98.60;;;;;;5071332;28;19968;-70
2021/07/15 11:31:40;;;;;;;;;;;21.30;99.50;;;;;;5074556;28;20520;-69
2021/07/15 11:34:07;;;;;;;;;;;21.30;98.90;;;;;;5071656;28;19950;-70
2021/07/15 11:36:36;;;;;;;;;;;21.40;99.00;;;;;;5074239;28;19958;-71
2021/07/15 11:39:05;;;;;;;;;;;21.40;98.10;;;;;;5073284;28;19991;-68
2021/07/15 11:41:47;;;;;;;;;;;21.40;97.40;;;;;;5073200;28;20414;-67
2021/07/15 11:44:16;;;;;;;;;;;21.50;97.10;;;;;;5074742;28;20030;-67
2021/07/15 11:46:43;;;;;;;;;;;21.60;98.20;;;;;;5071921;28;19935;-68
2021/07/15 11:49:11;;;;;;;;;;;21.60;97.90;;;;;;5072548;28;20402;-67
2021/07/15 11:51:41;;;;;;;;;;;21.60;97.70;;;;;;5072422;28;20856;-66
2021/07/15 11:54:28;;;;;;;;;;;21.60;97.10;;;;;;5075714;28;20022;-68
2021/07/15 11:56:56;;;;;;;;;;;21.60;96.80;;;;;;5070675;28;19975;-66
2021/07/15 11:59:42;;;;;;;;;;;21.60;95.70;;;;;;5073055;28;21414;-65
2021/07/15 12:02:46;;;;;;;;;;;21.60;96.30;;;;;;5076658;28;20020;-66
2021/07/15 12:05:15;;;;;;;;;;;21.60;96.30;;;;;;5034586;28;19936;-66
2021/07/15 12:07:49;;;;;;;;;;;21.70;97.50;;;;;;5065900;28;19928;-66
2021/07/15 12:10:24;;;;;;;;;;;21.70;96.00;;;;;;5074573;28;19936;-67
2021/07/15 12:12:52;;;;;;;;;;;21.70;95.20;;;;;;5074275;28;20022;-66
2021/07/15 12:15:20;;;;;;;;;;;21.70;95.40;;;;;;5073193;28;19932;-66
2021/07/15 12:17:49;;;;;;;;;;;21.80;98.80;;;;;;5071821;28;19972;-67
2021/07/15 12:20:17;;;;;;;;;;;21.70;96.70;;;;;;5073001;28;20369;-68
2021/07/15 12:22:52;;;;;;;;;;;21.80;97.50;;;;;;5075223;28;20035;-68
2021/07/15 12:25:20;;;;;;;;;;;21.80;97.10;;;;;;5078412;28;20018;-67
2021/07/15 12:27:48;;;;;;;;;;;21.80;98.40;;;;;;5078089;28;19989;-68
2021/07/15 12:30:15;;;;;;;;;;;21.80;98.10;;;;;;5072711;28;20351;-68
2021/07/15 12:32:57;;;;;;;;;;;21.90;97.50;;;;;;5076761;28;19954;-68
2021/07/15 12:35:24;;;;;;;;;;;21.90;97.30;;;;;;5077003;28;20111;-67
2021/07/15 12:37:51;;;;;;;;;;;22.00;95.70;;;;;;5070144;28;19928;-67
2021/07/15 12:40:23;;;;;;;;;;;22.00;95.40;;;;;;5070738;28;19990;-67
2021/07/15 12:42:50;;;;;;;;;;;22.10;96.90;;;;;;5072602;28;19941;-70
2021/07/15 12:45:19;;;;;;;;;;;22.10;97.00;;;;;;5081842;28;20022;-68
2021/07/15 12:47:57;;;;;;;;;;;22.00;96.40;;;;;;5077346;28;20404;-68
2021/07/15 12:50:24;;;;;;;;;;;22.00;95.90;;;;;;5072951;28;20310;-69
2021/07/15 12:53:06;;;;;;;;;;;21.90;95.70;;;;;;5075617;28;20327;-68
2021/07/15 12:55:33;;;;;;;;;;;22.10;97.00;;;;;;5077247;28;20474;-68
2021/07/15 12:58:00;;;;;;;;;;;22.20;95.60;;;;;;5078519;28;20031;-68
2021/07/15 13:00:30;;;;;;;;;;;22.10;95.90;;;;;;5082501;28;19973;-68
2021/07/15 13:02:57;;;;;;;;;;;22.00;94.50;;;;;;5070320;28;19944;-68
2021/07/15 13:05:24;;;;;;;;;;;22.00;95.10;;;;;;5074776;28;19944;-69
2021/07/15 13:07:51;;;;;;;;;;;22.00;95.70;;;;;;5080484;28;19924;-68
2021/07/15 13:15:49;;;;;;;;;;;22.00;95.40;;;;;;5077972;28;19924;-68
2021/07/15 13:18:16;;;;;;;;;;;22.10;95.70;;;;;;5084969;28;19925;-67
2021/07/15 13:20:44;;;;;;;;;;;22.20;96.10;;;;;;5091036;28;19974;-68
2021/07/15 13:23:11;;;;;;;;;;;22.20;95.50;;;;;;5081946;28;20015;-67
2021/07/15 13:25:42;;;;;;;;;;;22.20;94.70;;;;;;5077363;28;19971;-67
2021/07/15 13:28:10;;;;;;;;;;;22.20;95.30;;;;;;5075947;28;19990;-68
2021/07/15 13:30:37;;;;;;;;;;;22.20;94.80;;;;;;5079460;28;20016;-68
2021/07/15 13:33:16;;;;;;;;;;;22.30;93.50;;;;;;5081616;28;20011;-67
2021/07/15 13:35:45;;;;;;;;;;;22.20;94.40;;;;;;5078369;28;19924;-68
2021/07/15 13:38:13;;;;;;;;;;;22.30;94.50;;;;;;5085618;28;20515;-67
2021/07/15 13:40:40;;;;;;;;;;;22.30;94.20;;;;;;5087624;28;20506;-68
2021/07/15 13:43:08;;;;;;;;;;;22.30;93.80;;;;;;5078325;28;19975;-68
2021/07/15 13:45:37;;;;;;;;;;;22.30;93.30;;;;;;5078476;28;19928;-68
2021/07/15 13:48:15;;;;;;;;;;;22.30;92.90;;;;;;5076444;28;19924;-68
2021/07/15 13:50:43;;;;;;;;;;;22.30;92.30;;;;;;5081848;28;19950;-67
2021/07/15 13:53:10;;;;;;;;;;;22.30;92.70;;;;;;5084063;28;19976;-68
2021/07/15 13:55:37;;;;;;;;;;;22.30;92.50;;;;;;5076822;28;19936;-68
2021/07/15 13:58:04;;;;;;;;;;;22.30;92.20;;;;;;5075673;28;20026;-68
2021/07/15 14:00:31;;;;;;;;;;;22.30;92.50;;;;;;5078223;28;19974;-67
2021/07/15 14:03:03;;;;;;;;;;;22.20;92.10;;;;;;5083985;28;19955;-67
2021/07/15 14:05:38;;;;;;;;;;;22.30;91.60;;;;;;5081908;28;19924;-67
2021/07/15 14:08:06;;;;;;;;;;;22.30;91.60;;;;;;5077068;28;19932;-68
2021/07/15 14:10:33;;;;;;;;;;;22.30;91.30;;;;;;5078787;28;19993;-68
2021/07/15 14:13:00;;;;;;;;;;;22.30;91.00;;;;;;5092111;28;19962;-67
2021/07/15 14:15:31;;;;;;;;;;;22.20;91.40;;;;;;5077335;28;19942;-67
2021/07/15 14:18:03;;;;;;;;;;;22.30;91.60;;;;;;5079281;28;20030;-68
2021/07/15 14:20:30;;;;;;;;;;;22.30;92.70;;;;;;5079164;28;19928;-68
2021/07/15 14:22:58;;;;;;;;;;;22.30;91.50;;;;;;5077535;28;19963;-67
2021/07/15 14:25:28;;;;;;;;;;;22.30;91.20;;;;;;5076901;28;19924;-68
2021/07/15 14:27:55;;;;;;;;;;;22.30;92.40;;;;;;5073972;28;20012;-68
2021/07/15 14:30:24;;;;;;;;;;;22.30;91.60;;;;;;5078492;28;20518;-68